createdAt,value
2022-12-03T00:00:00.124Z,1.99
2022-12-03T00:02:47.546Z,1.95
2022-12-03T00:05:37.652Z,1.95
2022-12-03T00:08:24.946Z,1.87
2022-12-03T00:11:12.282Z,1.83
2022-12-03T00:13:59.813Z,1.75
2022-12-03T00:16:47.814Z,1.73
2022-12-03T00:19:35.213Z,1.71
2022-12-03T00:22:22.589Z,1.66
2022-12-03T00:25:10.035Z,1.67
2022-12-03T00:27:57.502Z,1.60
2022-12-03T00:30:44.870Z,1.63
2022-12-03T00:33:32.299Z,1.60
2022-12-03T00:36:19.798Z,1.57
2022-12-03T00:39:07.449Z,1.56
2022-12-03T00:41:54.832Z,1.50
2022-12-03T00:44:42.298Z,1.45
2022-12-03T00:47:29.767Z,1.35
2022-12-03T00:50:17.198Z,1.44
2022-12-03T00:53:04.734Z,1.39
2022-12-03T00:55:52.437Z,1.36
2022-12-03T00:58:39.825Z,1.27
2022-12-03T01:01:27.338Z,1.27
2022-12-03T01:04:14.860Z,1.25
2022-12-03T01:07:02.388Z,1.23
2022-12-03T01:09:49.924Z,1.27
2022-12-03T01:12:37.332Z,1.20
2022-12-03T01:15:24.737Z,1.19
2022-12-03T01:18:12.265Z,1.18
2022-12-03T01:20:59.605Z,1.11
2022-12-03T01:23:47.072Z,1.08
2022-12-03T01:26:34.455Z,1.14
2022-12-03T01:29:22.176Z,1.16
2022-12-03T01:32:17.119Z,1.16
2022-12-03T01:35:05.289Z,1.12
2022-12-03T01:37:52.702Z,1.05
2022-12-03T01:40:40.096Z,0.97
2022-12-03T01:43:27.559Z,1.00
2022-12-03T01:46:20.119Z,1.00
2022-12-03T01:49:14.736Z,1.01
2022-12-03T01:52:02.254Z,1.00
2022-12-03T01:54:53.881Z,0.92
2022-12-03T01:57:45.657Z,0.95
2022-12-03T02:00:33.182Z,0.91
2022-12-03T02:03:25.985Z,0.92
2022-12-03T02:06:19.562Z,0.95
2022-12-03T02:09:08.759Z,0.89
2022-12-03T02:11:56.229Z,0.97
2022-12-03T02:14:44.142Z,0.99
2022-12-03T02:17:32.378Z,0.95
2022-12-03T02:20:20.171Z,0.94
2022-12-03T02:23:14.122Z,0.92
2022-12-03T02:26:01.568Z,0.89
2022-12-03T02:28:49.403Z,0.87
2022-12-03T02:31:37.493Z,0.83
2022-12-03T02:34:37.396Z,0.88
2022-12-03T02:37:30.887Z,0.91
2022-12-03T02:40:21.465Z,0.90
2022-12-03T02:43:09.788Z,0.77
2022-12-03T02:46:00.550Z,0.76
2022-12-03T02:48:47.922Z,0.82
2022-12-03T02:51:35.788Z,0.82
2022-12-03T02:54:23.573Z,0.77
2022-12-03T02:57:11.377Z,0.76
2022-12-03T02:59:58.751Z,0.79
2022-12-03T03:02:47.520Z,0.81
2022-12-03T03:05:37.721Z,0.76
2022-12-03T03:08:26.999Z,0.76
2022-12-03T03:11:14.534Z,0.77
2022-12-03T03:14:02.938Z,0.75
2022-12-03T03:16:56.324Z,0.79
2022-12-03T03:19:44.026Z,0.76
2022-12-03T03:22:37.163Z,0.79
2022-12-03T03:25:24.839Z,0.76
2022-12-03T03:28:13.467Z,0.73
2022-12-03T03:31:02.860Z,0.77
2022-12-03T03:33:51.663Z,0.76
2022-12-03T03:36:39.796Z,0.75
2022-12-03T03:39:27.528Z,0.81
2022-12-03T03:42:15.467Z,0.77
2022-12-03T03:45:03.070Z,0.76
2022-12-03T03:47:50.485Z,0.81
2022-12-03T03:50:38.215Z,0.77
2022-12-03T03:53:25.970Z,0.76
2022-12-03T03:56:14.460Z,0.73
2022-12-03T03:59:02.920Z,0.75
2022-12-03T04:01:50.438Z,0.74
2022-12-03T04:04:37.832Z,0.78
2022-12-03T04:07:25.335Z,0.73
2022-12-03T04:10:32.993Z,0.75
2022-12-03T04:13:20.364Z,0.75
2022-12-03T04:16:07.934Z,0.72
2022-12-03T04:18:55.392Z,0.79
2022-12-03T04:22:01.374Z,0.78
2022-12-03T04:24:49.056Z,0.81
2022-12-03T04:27:55.112Z,0.76
2022-12-03T04:30:42.636Z,0.75
2022-12-03T04:33:48.753Z,0.77
2022-12-03T04:36:36.097Z,0.75
2022-12-03T04:39:23.694Z,0.76
2022-12-03T04:42:11.152Z,0.78
2022-12-03T04:44:58.643Z,0.76
2022-12-03T04:47:46.074Z,0.80
2022-12-03T04:50:33.564Z,0.81
2022-12-03T04:53:20.932Z,0.77
2022-12-03T04:56:08.741Z,0.78
2022-12-03T04:58:56.191Z,0.76
2022-12-03T05:01:45.214Z,0.82
2022-12-03T05:04:32.724Z,0.74
2022-12-03T05:07:20.107Z,0.73
2022-12-03T05:10:08.259Z,0.75
2022-12-03T05:12:56.132Z,0.69
2022-12-03T05:15:43.505Z,0.70
2022-12-03T05:18:30.858Z,0.63
2022-12-03T05:21:18.503Z,0.60
2022-12-03T05:24:06.655Z,0.63
2022-12-03T05:26:53.944Z,0.64
2022-12-03T05:29:41.522Z,0.63
2022-12-03T05:32:28.909Z,0.61
2022-12-03T05:35:16.575Z,0.64
2022-12-03T05:38:03.879Z,0.57
2022-12-03T05:40:51.286Z,0.63
2022-12-03T05:43:38.804Z,0.58
2022-12-03T05:46:26.247Z,0.62
2022-12-03T05:49:13.687Z,0.56
2022-12-03T05:52:01.442Z,0.54
2022-12-03T05:54:49.533Z,0.50
2022-12-03T05:57:37.100Z,0.53
2022-12-03T06:00:27.897Z,0.64
2022-12-03T06:03:15.794Z,0.61
2022-12-03T06:06:03.357Z,0.50
2022-12-03T06:08:50.654Z,0.57
2022-12-03T06:11:38.123Z,0.53
2022-12-03T06:14:25.528Z,0.50
2022-12-03T06:17:12.883Z,0.52
2022-12-03T06:20:00.341Z,0.54
2022-12-03T06:22:48.150Z,0.49
2022-12-03T06:25:35.605Z,0.46
2022-12-03T06:28:22.901Z,0.49
2022-12-03T06:31:10.340Z,0.43
2022-12-03T06:33:57.849Z,0.43
2022-12-03T06:36:47.196Z,0.39
2022-12-03T06:39:34.682Z,0.39
2022-12-03T06:42:22.290Z,0.38
2022-12-03T06:45:10.113Z,0.40
2022-12-03T06:47:57.704Z,0.36
2022-12-03T06:50:45.092Z,0.37
2022-12-03T06:53:32.414Z,0.38
2022-12-03T06:56:22.335Z,0.33
2022-12-03T06:59:10.033Z,0.34
2022-12-03T07:01:57.373Z,0.35
2022-12-03T07:04:46.577Z,0.39
2022-12-03T07:07:34.200Z,0.36
2022-12-03T07:10:22.537Z,0.41
2022-12-03T07:13:10.041Z,0.44
2022-12-03T07:15:57.740Z,0.39
2022-12-03T07:18:45.158Z,0.34
2022-12-03T07:21:32.774Z,0.37
2022-12-03T07:24:20.393Z,0.32
2022-12-03T07:27:07.994Z,0.35
2022-12-03T07:29:55.638Z,0.39
2022-12-03T07:32:43.278Z,0.41
2022-12-03T07:35:30.917Z,0.39
2022-12-03T07:38:18.396Z,0.47
2022-12-03T07:41:06.049Z,0.48
2022-12-03T07:43:53.412Z,0.47
2022-12-03T07:46:41.131Z,0.49
2022-12-03T07:49:28.696Z,0.52
2022-12-03T07:52:16.036Z,0.57
2022-12-03T07:55:03.486Z,0.61
2022-12-03T07:57:51.431Z,0.70
2022-12-03T08:00:38.871Z,0.68
2022-12-03T08:03:26.259Z,0.79
2022-12-03T08:06:13.672Z,0.82
2022-12-03T08:09:01.070Z,0.86
2022-12-03T08:11:49.078Z,0.92
2022-12-03T08:14:36.526Z,0.98
2022-12-03T08:17:24.644Z,1.04
2022-12-03T08:20:20.567Z,1.14
2022-12-03T08:23:21.921Z,1.07
2022-12-03T08:26:19.550Z,1.18
2022-12-03T08:29:16.568Z,1.14
2022-12-03T08:32:07.042Z,1.21
2022-12-03T08:34:55.204Z,1.32
2022-12-03T08:37:42.763Z,1.32
2022-12-03T08:40:42.968Z,1.39
2022-12-03T08:43:36.052Z,1.53
2022-12-03T08:46:23.582Z,1.65
2022-12-03T08:49:11.176Z,1.77
2022-12-03T08:52:01.531Z,1.87
2022-12-03T08:54:55.074Z,1.92
2022-12-03T08:57:43.660Z,2.04
2022-12-03T09:00:31.104Z,1.98
2022-12-03T09:03:19.615Z,2.16
2022-12-03T09:06:07.457Z,2.32
2022-12-03T09:08:54.765Z,2.54
2022-12-03T09:11:43.735Z,2.67
2022-12-03T09:14:31.402Z,2.57
2022-12-03T09:17:18.792Z,2.50
2022-12-03T09:20:07.225Z,2.48
2022-12-03T09:22:54.773Z,2.54
2022-12-03T09:25:42.066Z,2.55
2022-12-03T09:28:29.813Z,2.62
2022-12-03T09:31:17.186Z,2.72
2022-12-03T09:34:05.596Z,2.77
2022-12-03T09:36:53.033Z,2.82
2022-12-03T09:39:40.493Z,2.76
2022-12-03T09:42:28.068Z,2.69
2022-12-03T09:45:16.622Z,2.74
2022-12-03T09:48:04.423Z,2.78
2022-12-03T09:50:52.269Z,2.85
2022-12-03T09:53:41.490Z,2.75
2022-12-03T09:56:29.157Z,2.67
2022-12-03T09:59:17.671Z,2.65
2022-12-03T10:02:16.568Z,2.54
2022-12-03T10:05:04.180Z,2.43
2022-12-03T10:07:53.188Z,2.37
2022-12-03T10:10:42.309Z,2.32
2022-12-03T10:13:51.573Z,2.19
2022-12-03T10:16:40.286Z,2.17
2022-12-03T10:19:31.599Z,2.13
2022-12-03T10:22:19.075Z,2.08
2022-12-03T10:25:37.593Z,2.03
2022-12-03T10:28:39.400Z,2.01
2022-12-03T10:31:36.425Z,2.07
2022-12-03T10:34:30.747Z,2.04
2022-12-03T10:37:20.705Z,1.94
2022-12-03T10:40:11.615Z,2.06
2022-12-03T10:43:18.146Z,2.06
2022-12-03T10:46:20.442Z,2.18
2022-12-03T10:49:16.414Z,2.19
2022-12-03T10:52:05.484Z,2.23
2022-12-03T10:54:53.193Z,2.24
2022-12-03T10:57:45.324Z,2.24
2022-12-03T11:00:33.130Z,2.36
2022-12-03T11:03:23.981Z,2.45
2022-12-03T11:06:18.538Z,2.50
2022-12-03T11:09:16.584Z,2.49
2022-12-03T11:12:06.294Z,2.48
2022-12-03T11:14:58.004Z,2.40
2022-12-03T11:17:46.773Z,2.48
2022-12-03T11:20:51.639Z,2.46
2022-12-03T11:23:50.351Z,2.44
2022-12-03T11:26:49.448Z,2.41
2022-12-03T11:29:55.675Z,2.44
2022-12-03T11:32:44.070Z,2.40
2022-12-03T11:36:03.927Z,2.38
2022-12-03T11:38:54.454Z,2.34
2022-12-03T11:42:25.973Z,2.37
2022-12-03T11:45:21.168Z,2.33
2022-12-03T11:48:16.435Z,2.35
2022-12-03T11:51:04.914Z,2.45
2022-12-03T11:54:03.513Z,2.44
2022-12-03T11:56:54.772Z,2.41
2022-12-03T11:59:59.066Z,2.36
2022-12-03T12:02:47.179Z,2.39
2022-12-03T12:05:35.031Z,2.33
2022-12-03T12:08:22.476Z,2.39
2022-12-03T12:11:20.444Z,2.44
2022-12-03T12:14:13.629Z,2.38
2022-12-03T12:17:03.279Z,2.38
2022-12-03T12:19:54.393Z,2.27
2022-12-03T12:22:42.152Z,2.32
2022-12-03T12:25:40.319Z,2.34
2022-12-03T12:28:27.728Z,2.23
2022-12-03T12:31:15.088Z,2.28
2022-12-03T12:34:05.205Z,2.17
2022-12-03T12:36:56.952Z,2.22
2022-12-03T12:39:44.485Z,2.24
2022-12-03T12:42:37.244Z,2.23
2022-12-03T12:45:35.964Z,2.27
2022-12-03T12:48:30.626Z,2.27
2022-12-03T12:51:19.592Z,2.25
2022-12-03T12:54:12.962Z,2.17
2022-12-03T12:57:00.893Z,2.17
2022-12-03T12:59:49.417Z,2.21
2022-12-03T13:03:00.476Z,2.13
2022-12-03T13:05:53.545Z,2.19
2022-12-03T13:08:45.541Z,2.35
2022-12-03T13:11:42.815Z,2.38
2022-12-03T13:14:37.940Z,2.40
2022-12-03T13:17:28.361Z,2.29
2022-12-03T13:20:23.402Z,2.29
2022-12-03T13:23:33.017Z,2.20
2022-12-03T13:26:37.682Z,2.29
2022-12-03T13:29:27.640Z,2.25
2022-12-03T13:32:22.572Z,2.18
2022-12-03T13:35:17.327Z,2.28
2022-12-03T13:38:13.588Z,2.36
2022-12-03T13:41:02.745Z,2.33
2022-12-03T13:43:50.030Z,2.29
2022-12-03T13:46:37.492Z,2.30
2022-12-03T13:49:25.082Z,2.21
2022-12-03T13:52:17.000Z,2.18
2022-12-03T13:55:06.632Z,2.19
2022-12-03T13:57:54.317Z,2.16
2022-12-03T14:00:41.756Z,2.12
2022-12-03T14:03:29.162Z,2.06
2022-12-03T14:06:16.811Z,2.11
2022-12-03T14:09:04.580Z,2.08
2022-12-03T14:12:10.349Z,2.17
2022-12-03T14:14:57.769Z,2.16
2022-12-03T14:17:45.142Z,2.12
2022-12-03T14:20:34.519Z,2.06
2022-12-03T14:23:21.887Z,2.07
2022-12-03T14:26:09.209Z,2.07
2022-12-03T14:28:56.934Z,2.09
2022-12-03T14:31:44.349Z,2.08
2022-12-03T14:34:31.996Z,1.98
2022-12-03T14:37:19.321Z,1.97
2022-12-03T14:40:09.003Z,1.96
2022-12-03T14:42:56.427Z,1.97
2022-12-03T14:45:43.800Z,1.95
2022-12-03T14:48:31.226Z,1.97
2022-12-03T14:51:18.652Z,1.92
2022-12-03T14:54:06.068Z,1.83
2022-12-03T14:56:53.715Z,1.83
2022-12-03T14:59:42.661Z,1.75
2022-12-03T15:02:30.422Z,1.75
2022-12-03T15:05:22.081Z,1.82
2022-12-03T15:08:12.375Z,1.81
2022-12-03T15:11:00.120Z,1.68
2022-12-03T15:13:47.575Z,1.71
2022-12-03T15:16:35.279Z,1.70
2022-12-03T15:19:22.716Z,1.52
2022-12-03T15:22:10.146Z,1.55
2022-12-03T15:24:57.559Z,1.54
2022-12-03T15:27:45.115Z,1.52
2022-12-03T15:30:35.527Z,1.49
2022-12-03T15:33:22.953Z,1.52
2022-12-03T15:36:10.274Z,1.50
2022-12-03T15:38:57.753Z,1.48
2022-12-03T15:41:45.202Z,1.44
2022-12-03T15:44:32.488Z,1.45
2022-12-03T15:47:19.827Z,1.35
2022-12-03T15:50:08.022Z,1.27
2022-12-03T15:52:55.739Z,1.31
2022-12-03T15:55:43.337Z,1.31
2022-12-03T15:58:30.734Z,1.33
2022-12-03T16:01:18.517Z,1.18
2022-12-03T16:04:06.314Z,1.28
2022-12-03T16:06:53.763Z,1.31
2022-12-03T16:09:41.043Z,1.24
2022-12-03T16:12:29.056Z,1.27
2022-12-03T16:15:17.657Z,1.22
2022-12-03T16:18:07.185Z,1.23
2022-12-03T16:20:54.578Z,1.22
2022-12-03T16:23:41.903Z,1.16
2022-12-03T16:26:29.227Z,1.09
2022-12-03T16:29:16.705Z,1.07
2022-12-03T16:32:04.101Z,1.03
2022-12-03T16:34:51.469Z,1.11
2022-12-03T16:37:38.924Z,1.05
2022-12-03T16:40:26.385Z,0.97
2022-12-03T16:43:13.759Z,1.09
2022-12-03T16:46:20.985Z,1.05
2022-12-03T16:49:08.840Z,1.04
2022-12-03T16:51:56.379Z,0.98
2022-12-03T16:54:43.706Z,0.96
2022-12-03T16:57:33.836Z,0.98
2022-12-03T17:00:26.224Z,1.01
2022-12-03T17:03:13.821Z,1.02
2022-12-03T17:06:02.168Z,0.94
2022-12-03T17:08:50.139Z,1.00
2022-12-03T17:11:37.727Z,1.03
2022-12-03T17:14:28.649Z,0.99
2022-12-03T17:17:20.298Z,0.99
2022-12-03T17:20:08.737Z,0.98
2022-12-03T17:22:57.053Z,0.95
2022-12-03T17:25:44.532Z,0.88
2022-12-03T17:28:31.983Z,0.87
2022-12-03T17:31:19.532Z,0.92
2022-12-03T17:34:06.905Z,0.87
2022-12-03T17:36:54.498Z,0.84
2022-12-03T17:39:42.208Z,0.84
2022-12-03T17:42:29.653Z,0.77
2022-12-03T17:45:17.241Z,0.76
2022-12-03T17:48:04.820Z,0.78
2022-12-03T17:50:52.423Z,0.81
2022-12-03T17:53:39.981Z,0.80
2022-12-03T17:56:27.353Z,0.76
2022-12-03T17:59:15.055Z,0.63
2022-12-03T18:02:02.771Z,0.68
2022-12-03T18:04:50.167Z,0.62
2022-12-03T18:07:37.688Z,0.66
2022-12-03T18:10:25.700Z,0.70
2022-12-03T18:13:13.177Z,0.76
2022-12-03T18:16:01.689Z,0.73
2022-12-03T18:18:52.449Z,0.72
2022-12-03T18:21:43.684Z,0.69
2022-12-03T18:24:31.153Z,0.60
2022-12-03T18:27:19.963Z,0.54
2022-12-03T18:30:08.125Z,0.49
2022-12-03T18:32:55.743Z,0.50
2022-12-03T18:35:44.011Z,0.53
2022-12-03T18:38:33.443Z,0.49
2022-12-03T18:41:25.088Z,0.42
2022-12-03T18:44:12.792Z,0.39
2022-12-03T18:47:01.050Z,0.29
2022-12-03T18:49:48.937Z,0.19
2022-12-03T18:52:37.034Z,0.16
2022-12-03T18:55:27.357Z,0.03
2022-12-03T18:58:14.806Z,0.05
2022-12-03T19:01:02.530Z,0.00
2022-12-03T19:03:50.301Z,0.04
2022-12-03T19:06:37.790Z,-0.08
2022-12-03T19:09:25.197Z,-0.14
2022-12-03T19:12:14.723Z,-0.19
2022-12-03T19:15:03.043Z,-0.28
2022-12-03T19:17:51.137Z,-0.37
2022-12-03T19:20:41.137Z,-0.40
2022-12-03T19:23:28.669Z,-0.40
2022-12-03T19:26:17.279Z,-0.43
2022-12-03T19:29:04.641Z,-0.44
2022-12-03T19:31:52.798Z,-0.32
2022-12-03T19:34:40.192Z,-0.24
2022-12-03T19:37:27.503Z,-0.17
2022-12-03T19:40:18.586Z,-0.14
2022-12-03T19:43:05.936Z,-0.11
2022-12-03T19:45:54.487Z,-0.19
2022-12-03T19:48:42.550Z,-0.13
2022-12-03T19:51:37.013Z,-0.07
2022-12-03T19:54:24.501Z,-0.02
2022-12-03T19:57:11.809Z,-0.03
2022-12-03T19:59:59.272Z,0.04
2022-12-03T20:02:49.116Z,0.13
2022-12-03T20:05:41.095Z,0.11
2022-12-03T20:08:28.563Z,0.12
2022-12-03T20:11:24.470Z,0.14
2022-12-03T20:14:15.273Z,0.20
2022-12-03T20:17:02.722Z,0.25
2022-12-03T20:19:50.225Z,0.28
2022-12-03T20:22:37.707Z,0.33
2022-12-03T20:25:25.057Z,0.33
2022-12-03T20:28:12.381Z,0.35
2022-12-03T20:31:01.508Z,0.31
2022-12-03T20:33:51.712Z,0.35
2022-12-03T20:36:39.959Z,0.29
2022-12-03T20:39:27.448Z,0.40
2022-12-03T20:42:14.797Z,0.37
2022-12-03T20:45:02.151Z,0.39
2022-12-03T20:47:49.519Z,0.37
2022-12-03T20:50:40.407Z,0.29
2022-12-03T20:53:27.805Z,0.31
2022-12-03T20:56:21.198Z,0.33
2022-12-03T20:59:12.228Z,0.28
2022-12-03T21:01:59.829Z,0.38
2022-12-03T21:04:47.375Z,0.36
2022-12-03T21:07:35.102Z,0.39
2022-12-03T21:10:44.606Z,0.37
2022-12-03T21:13:32.585Z,0.33
2022-12-03T21:16:52.037Z,0.36
2022-12-03T21:19:33.547Z,0.43
2022-12-03T21:22:20.828Z,0.43
2022-12-03T21:25:09.037Z,0.42
2022-12-03T21:27:57.088Z,0.47
2022-12-03T21:30:44.528Z,0.44
2022-12-03T21:33:32.476Z,0.37
2022-12-03T21:36:20.154Z,0.43
2022-12-03T21:39:08.056Z,0.45
2022-12-03T21:42:18.910Z,0.53
2022-12-03T21:45:03.221Z,0.46
2022-12-03T21:47:51.077Z,0.56
2022-12-03T21:50:38.536Z,0.51
2022-12-03T21:53:26.300Z,0.53
2022-12-03T21:56:16.774Z,0.57
2022-12-03T21:59:04.391Z,0.57
2022-12-03T22:01:52.205Z,0.60
2022-12-03T22:04:40.056Z,0.53
2022-12-03T22:07:27.467Z,0.49
2022-12-03T22:10:15.277Z,0.52
2022-12-03T22:13:03.210Z,0.50
2022-12-03T22:15:50.628Z,0.57
2022-12-03T22:18:38.165Z,0.56
2022-12-03T22:21:25.854Z,0.57
2022-12-03T22:24:13.205Z,0.56
2022-12-03T22:27:00.650Z,0.57
2022-12-03T22:29:48.019Z,0.51
2022-12-03T22:32:35.866Z,0.57
2022-12-03T22:35:23.245Z,0.51
2022-12-03T22:38:10.680Z,0.57
2022-12-03T22:40:58.145Z,0.62
2022-12-03T22:43:46.637Z,0.55
2022-12-03T22:46:34.047Z,0.61
2022-12-03T22:49:21.413Z,0.56
2022-12-03T22:52:09.177Z,0.62
2022-12-03T22:54:56.442Z,0.64
2022-12-03T22:57:43.829Z,0.63
2022-12-03T23:00:35.208Z,0.68
2022-12-03T23:03:23.267Z,0.65
2022-12-03T23:06:12.359Z,0.65
2022-12-03T23:09:01.562Z,0.68
2022-12-03T23:11:48.909Z,0.65
2022-12-03T23:14:36.781Z,0.69
2022-12-03T23:17:24.109Z,0.62
2022-12-03T23:20:12.221Z,0.68
2022-12-03T23:22:59.646Z,0.67
2022-12-03T23:26:00.535Z,0.58
2022-12-03T23:28:48.042Z,0.64
2022-12-03T23:31:36.251Z,0.63
2022-12-03T23:34:23.806Z,0.68
2022-12-03T23:37:11.270Z,0.67
2022-12-03T23:39:58.576Z,0.67
2022-12-03T23:42:46.007Z,0.77
2022-12-03T23:45:34.481Z,0.80
2022-12-03T23:48:21.890Z,0.74
2022-12-03T23:51:12.188Z,0.62
2022-12-03T23:53:59.585Z,0.75
2022-12-03T23:56:46.901Z,0.73
2022-12-03T23:59:34.528Z,0.79
